Hauptseite
METAR-TAF:

METAR-TAF

Flughäfen :

Fliegerhorst Lechfeld

Lechfeld, Deutschland

Breite: 48-11N, Länge: 010-52E, Höhe: 555 m

Beobachtung

Neuester Wetterbericht von vor 40 Minuten, um 16:20 UTC
Wind 5 kt aus Nordost
Temperatur 14°C
Luftfeuchtigkeit 67%
Luftdruck 1018 hPa
Sichtweite 10 km oder mehr
Leicht bewölkt in der Höhe von 25000 ft

METAR: ETSL 171620Z 05005KT 9999 FEW250 14/08 Q1018 BLU+

Zeit: 19:00 (17:00 UTC)

Prognose

Neuester Wetterbericht von vor 2 Stunden und 9 Minuten, um 14:51 UTC
Gültige Prognose vom 17 um 14 UTC bis 17 um 23 UTC
Wind 5 kt aus Nord/Nordost
Sichtweite: 1520 m
Leicht bewölkt in der Höhe von 20000 ft

TAF: ETSL 171451Z 1714/1723 03005KT 9999 NSW FEW200 CANCEL 1520 BY ETGL

Wetterbeobachtungen und Prognosen von mehr als 4000 Flughäfen (METAR und TAF Bericht).

Die verfügbaren Stationen werden durch gelbe und rote Markierungen auf der Karte dargestellt.

Führen Sie die Maus auf sie, um den Namen der Station zu sehen.

Darauf klicken, um die Beobachtung von Wetterbeobachtungen und Prognosen zu sehen.

Um die Karte zu ändern : klicken Sie auf den grünen Tasten mit einem schwarzen Kreuz Zum Vergrößern, auf den grünen Button mit einem Gedankenstrich zu verkleinern, oder auf die grünen Pfeile für benachbarte Karten.


METAR-TAF: